sensor_id;sensor_type;location;lat;lon;timestamp;P1;durP1;ratioP1;P2;durP2;ratioP2
13230;SDS011;6681;53.254;10.398;2023-06-14T00:00:39;3.10;;;2.47;;
13230;SDS011;6681;53.254;10.398;2023-06-14T00:03:09;4.57;;;2.10;;
13230;SDS011;6681;53.254;10.398;2023-06-14T00:05:36;6.07;;;2.40;;
13230;SDS011;6681;53.254;10.398;2023-06-14T00:08:08;3.43;;;2.77;;
13230;SDS011;6681;53.254;10.398;2023-06-14T00:10:35;5.00;;;2.37;;
13230;SDS011;6681;53.254;10.398;2023-06-14T00:13:02;5.23;;;2.40;;
13230;SDS011;6681;53.254;10.398;2023-06-14T00:15:29;3.37;;;2.00;;
13230;SDS011;6681;53.254;10.398;2023-06-14T00:17:56;4.43;;;2.47;;
13230;SDS011;6681;53.254;10.398;2023-06-14T00:20:25;6.20;;;2.83;;
13230;SDS011;6681;53.254;10.398;2023-06-14T00:22:52;6.37;;;3.03;;
13230;SDS011;6681;53.254;10.398;2023-06-14T00:25:20;3.43;;;2.67;;
13230;SDS011;6681;53.254;10.398;2023-06-14T00:27:47;3.70;;;2.13;;
13230;SDS011;6681;53.254;10.398;2023-06-14T00:30:12;3.90;;;2.13;;
13230;SDS011;6681;53.254;10.398;2023-06-14T00:32:38;5.60;;;3.00;;
13230;SDS011;6681;53.254;10.398;2023-06-14T00:35:04;3.93;;;2.40;;
13230;SDS011;6681;53.254;10.398;2023-06-14T00:37:30;3.77;;;2.73;;
13230;SDS011;6681;53.254;10.398;2023-06-14T00:39:55;2.73;;;2.10;;
13230;SDS011;6681;53.254;10.398;2023-06-14T00:42:24;5.73;;;2.03;;
13230;SDS011;6681;53.254;10.398;2023-06-14T00:44:51;4.23;;;2.40;;
13230;SDS011;6681;53.254;10.398;2023-06-14T00:47:16;2.57;;;2.03;;
13230;SDS011;6681;53.254;10.398;2023-06-14T00:49:42;3.30;;;2.97;;
13230;SDS011;6681;53.254;10.398;2023-06-14T00:52:10;3.90;;;2.73;;
13230;SDS011;6681;53.254;10.398;2023-06-14T00:54:37;3.77;;;2.00;;
13230;SDS011;6681;53.254;10.398;2023-06-14T00:57:05;4.90;;;2.43;;
13230;SDS011;6681;53.254;10.398;2023-06-14T00:59:31;4.93;;;2.97;;
13230;SDS011;6681;53.254;10.398;2023-06-14T01:01:57;2.60;;;1.80;;
13230;SDS011;6681;53.254;10.398;2023-06-14T01:04:22;2.50;;;2.17;;
13230;SDS011;6681;53.254;10.398;2023-06-14T01:09:48;6.23;;;1.77;;
13230;SDS011;6681;53.254;10.398;2023-06-14T01:12:42;4.50;;;2.50;;
13230;SDS011;6681;53.254;10.398;2023-06-14T01:15:16;5.97;;;2.67;;
13230;SDS011;6681;53.254;10.398;2023-06-14T01:17:43;4.20;;;2.10;;
13230;SDS011;6681;53.254;10.398;2023-06-14T01:20:13;3.80;;;2.53;;
13230;SDS011;6681;53.254;10.398;2023-06-14T01:22:52;2.80;;;2.10;;
13230;SDS011;6681;53.254;10.398;2023-06-14T01:25:22;3.63;;;2.27;;
13230;SDS011;6681;53.254;10.398;2023-06-14T01:27:48;4.50;;;2.77;;
13230;SDS011;6681;53.254;10.398;2023-06-14T01:30:16;3.57;;;2.27;;
13230;SDS011;6681;53.254;10.398;2023-06-14T01:32:43;2.50;;;1.90;;
13230;SDS011;6681;53.254;10.398;2023-06-14T01:35:10;3.50;;;3.20;;
13230;SDS011;6681;53.254;10.398;2023-06-14T01:37:36;1.60;;;1.50;;
13230;SDS011;6681;53.254;10.398;2023-06-14T01:40:05;2.60;;;2.40;;
13230;SDS011;6681;53.254;10.398;2023-06-14T01:42:35;4.57;;;2.30;;
13230;SDS011;6681;53.254;10.398;2023-06-14T01:45:03;7.20;;;2.83;;
13230;SDS011;6681;53.254;10.398;2023-06-14T01:47:31;2.70;;;2.20;;
13230;SDS011;6681;53.254;10.398;2023-06-14T01:49:57;6.47;;;2.53;;
13230;SDS011;6681;53.254;10.398;2023-06-14T01:52:23;3.77;;;1.77;;
13230;SDS011;6681;53.254;10.398;2023-06-14T01:54:49;6.87;;;1.93;;
13230;SDS011;6681;53.254;10.398;2023-06-14T01:57:16;2.17;;;1.93;;
13230;SDS011;6681;53.254;10.398;2023-06-14T01:59:41;2.13;;;1.93;;
13230;SDS011;6681;53.254;10.398;2023-06-14T02:02:07;5.23;;;2.60;;
13230;SDS011;6681;53.254;10.398;2023-06-14T02:04:33;2.47;;;1.77;;
13230;SDS011;6681;53.254;10.398;2023-06-14T02:06:58;4.43;;;2.67;;
13230;SDS011;6681;53.254;10.398;2023-06-14T02:09:24;2.90;;;2.50;;
13230;SDS011;6681;53.254;10.398;2023-06-14T02:11:50;1.93;;;1.83;;
13230;SDS011;6681;53.254;10.398;2023-06-14T02:14:16;4.50;;;2.17;;
13230;SDS011;6681;53.254;10.398;2023-06-14T02:16:42;4.27;;;2.70;;
13230;SDS011;6681;53.254;10.398;2023-06-14T02:19:14;3.27;;;2.50;;
13230;SDS011;6681;53.254;10.398;2023-06-14T02:21:41;2.70;;;2.30;;
13230;SDS011;6681;53.254;10.398;2023-06-14T02:24:07;2.50;;;2.30;;
13230;SDS011;6681;53.254;10.398;2023-06-14T02:26:33;3.40;;;2.00;;
13230;SDS011;6681;53.254;10.398;2023-06-14T02:28:59;3.07;;;2.43;;
13230;SDS011;6681;53.254;10.398;2023-06-14T02:31:25;4.77;;;1.93;;
13230;SDS011;6681;53.254;10.398;2023-06-14T02:33:50;2.10;;;1.80;;
13230;SDS011;6681;53.254;10.398;2023-06-14T02:36:16;2.20;;;2.00;;
13230;SDS011;6681;53.254;10.398;2023-06-14T02:38:42;4.93;;;2.10;;
13230;SDS011;6681;53.254;10.398;2023-06-14T02:41:07;5.83;;;3.73;;
13230;SDS011;6681;53.254;10.398;2023-06-14T02:43:33;2.47;;;2.23;;
13230;SDS011;6681;53.254;10.398;2023-06-14T02:45:59;3.83;;;2.20;;
13230;SDS011;6681;53.254;10.398;2023-06-14T02:48:24;5.80;;;2.77;;
13230;SDS011;6681;53.254;10.398;2023-06-14T02:50:50;3.17;;;2.10;;
13230;SDS011;6681;53.254;10.398;2023-06-14T02:53:16;2.57;;;1.80;;
13230;SDS011;6681;53.254;10.398;2023-06-14T02:55:42;5.43;;;2.73;;
13230;SDS011;6681;53.254;10.398;2023-06-14T02:58:07;5.43;;;2.87;;
13230;SDS011;6681;53.254;10.398;2023-06-14T03:00:33;5.43;;;2.53;;
13230;SDS011;6681;53.254;10.398;2023-06-14T03:03:00;6.33;;;3.23;;
13230;SDS011;6681;53.254;10.398;2023-06-14T03:05:26;5.43;;;2.63;;
13230;SDS011;6681;53.254;10.398;2023-06-14T03:07:53;2.57;;;2.37;;
13230;SDS011;6681;53.254;10.398;2023-06-14T03:10:19;2.70;;;2.50;;
13230;SDS011;6681;53.254;10.398;2023-06-14T03:12:47;5.37;;;2.50;;
13230;SDS011;6681;53.254;10.398;2023-06-14T03:15:12;3.30;;;2.53;;
13230;SDS011;6681;53.254;10.398;2023-06-14T03:17:38;7.20;;;2.40;;
13230;SDS011;6681;53.254;10.398;2023-06-14T03:20:04;4.97;;;2.60;;
13230;SDS011;6681;53.254;10.398;2023-06-14T03:22:30;4.10;;;2.63;;
13230;SDS011;6681;53.254;10.398;2023-06-14T03:24:59;6.63;;;2.03;;
13230;SDS011;6681;53.254;10.398;2023-06-14T03:27:25;7.37;;;2.83;;
13230;SDS011;6681;53.254;10.398;2023-06-14T03:29:53;4.23;;;3.17;;
13230;SDS011;6681;53.254;10.398;2023-06-14T03:32:19;4.80;;;3.30;;
13230;SDS011;6681;53.254;10.398;2023-06-14T03:34:45;5.07;;;2.73;;
13230;SDS011;6681;53.254;10.398;2023-06-14T03:37:11;4.97;;;2.43;;
13230;SDS011;6681;53.254;10.398;2023-06-14T03:39:37;4.87;;;2.37;;
13230;SDS011;6681;53.254;10.398;2023-06-14T03:42:03;4.90;;;2.17;;
13230;SDS011;6681;53.254;10.398;2023-06-14T03:44:28;3.13;;;2.27;;
13230;SDS011;6681;53.254;10.398;2023-06-14T03:46:54;3.57;;;2.43;;
13230;SDS011;6681;53.254;10.398;2023-06-14T03:49:20;4.17;;;2.80;;
13230;SDS011;6681;53.254;10.398;2023-06-14T03:51:46;3.63;;;2.70;;
13230;SDS011;6681;53.254;10.398;2023-06-14T03:54:15;4.60;;;2.67;;
13230;SDS011;6681;53.254;10.398;2023-06-14T03:56:41;3.40;;;3.10;;
13230;SDS011;6681;53.254;10.398;2023-06-14T03:59:07;6.63;;;3.23;;
13230;SDS011;6681;53.254;10.398;2023-06-14T04:01:32;5.67;;;3.40;;
13230;SDS011;6681;53.254;10.398;2023-06-14T04:03:58;4.43;;;3.00;;
13230;SDS011;6681;53.254;10.398;2023-06-14T04:06:24;5.13;;;3.37;;
13230;SDS011;6681;53.254;10.398;2023-06-14T04:08:57;6.10;;;3.70;;
13230;SDS011;6681;53.254;10.398;2023-06-14T04:11:28;12.30;;;4.13;;
13230;SDS011;6681;53.254;10.398;2023-06-14T04:13:54;5.43;;;3.00;;
13230;SDS011;6681;53.254;10.398;2023-06-14T04:16:21;5.70;;;3.67;;
13230;SDS011;6681;53.254;10.398;2023-06-14T04:18:47;5.67;;;3.30;;
13230;SDS011;6681;53.254;10.398;2023-06-14T04:21:16;5.23;;;2.77;;
13230;SDS011;6681;53.254;10.398;2023-06-14T04:23:42;5.17;;;3.10;;
13230;SDS011;6681;53.254;10.398;2023-06-14T04:26:09;5.17;;;3.63;;
13230;SDS011;6681;53.254;10.398;2023-06-14T04:28:35;4.43;;;3.17;;
13230;SDS011;6681;53.254;10.398;2023-06-14T04:31:05;4.13;;;3.73;;
13230;SDS011;6681;53.254;10.398;2023-06-14T04:33:34;4.93;;;3.13;;
13230;SDS011;6681;53.254;10.398;2023-06-14T04:36:10;6.80;;;3.83;;
13230;SDS011;6681;53.254;10.398;2023-06-14T04:38:42;9.23;;;4.10;;
13230;SDS011;6681;53.254;10.398;2023-06-14T04:41:10;5.20;;;3.77;;
13230;SDS011;6681;53.254;10.398;2023-06-14T04:43:36;6.20;;;3.90;;
13230;SDS011;6681;53.254;10.398;2023-06-14T04:46:03;6.07;;;3.77;;
13230;SDS011;6681;53.254;10.398;2023-06-14T04:48:30;4.10;;;2.87;;
13230;SDS011;6681;53.254;10.398;2023-06-14T04:50:56;7.97;;;3.77;;
13230;SDS011;6681;53.254;10.398;2023-06-14T04:53:22;6.03;;;3.53;;
13230;SDS011;6681;53.254;10.398;2023-06-14T04:55:48;4.07;;;3.67;;
13230;SDS011;6681;53.254;10.398;2023-06-14T04:58:15;4.67;;;3.77;;
13230;SDS011;6681;53.254;10.398;2023-06-14T05:00:41;5.57;;;3.53;;
13230;SDS011;6681;53.254;10.398;2023-06-14T05:03:08;6.13;;;3.70;;
13230;SDS011;6681;53.254;10.398;2023-06-14T05:05:34;3.00;;;2.67;;
13230;SDS011;6681;53.254;10.398;2023-06-14T05:08:00;6.67;;;3.67;;
13230;SDS011;6681;53.254;10.398;2023-06-14T05:10:25;6.20;;;3.90;;
13230;SDS011;6681;53.254;10.398;2023-06-14T05:12:51;5.47;;;4.43;;
13230;SDS011;6681;53.254;10.398;2023-06-14T05:15:17;5.63;;;3.00;;
13230;SDS011;6681;53.254;10.398;2023-06-14T05:17:44;6.17;;;3.77;;
13230;SDS011;6681;53.254;10.398;2023-06-14T05:20:18;6.40;;;3.87;;
13230;SDS011;6681;53.254;10.398;2023-06-14T05:22:43;7.33;;;4.73;;
13230;SDS011;6681;53.254;10.398;2023-06-14T05:25:09;4.23;;;3.33;;
13230;SDS011;6681;53.254;10.398;2023-06-14T05:27:34;3.37;;;2.77;;
13230;SDS011;6681;53.254;10.398;2023-06-14T05:30:02;3.17;;;2.33;;
13230;SDS011;6681;53.254;10.398;2023-06-14T05:32:28;4.70;;;3.00;;
13230;SDS011;6681;53.254;10.398;2023-06-14T05:34:54;8.00;;;3.33;;
13230;SDS011;6681;53.254;10.398;2023-06-14T05:37:22;4.37;;;3.17;;
13230;SDS011;6681;53.254;10.398;2023-06-14T05:39:47;7.03;;;3.90;;
13230;SDS011;6681;53.254;10.398;2023-06-14T05:42:13;6.47;;;3.20;;
13230;SDS011;6681;53.254;10.398;2023-06-14T05:44:38;6.20;;;3.47;;
13230;SDS011;6681;53.254;10.398;2023-06-14T05:47:04;4.10;;;2.87;;
13230;SDS011;6681;53.254;10.398;2023-06-14T05:49:30;6.53;;;2.97;;
13230;SDS011;6681;53.254;10.398;2023-06-14T05:51:56;6.93;;;3.67;;
13230;SDS011;6681;53.254;10.398;2023-06-14T05:54:21;5.20;;;4.50;;
13230;SDS011;6681;53.254;10.398;2023-06-14T05:56:47;6.43;;;3.83;;
13230;SDS011;6681;53.254;10.398;2023-06-14T05:59:12;6.93;;;3.73;;
13230;SDS011;6681;53.254;10.398;2023-06-14T06:01:38;7.43;;;2.83;;
13230;SDS011;6681;53.254;10.398;2023-06-14T06:04:05;5.03;;;3.70;;
13230;SDS011;6681;53.254;10.398;2023-06-14T06:06:31;7.03;;;3.57;;
13230;SDS011;6681;53.254;10.398;2023-06-14T06:08:57;5.50;;;3.60;;
13230;SDS011;6681;53.254;10.398;2023-06-14T06:11:23;4.87;;;2.80;;
13230;SDS011;6681;53.254;10.398;2023-06-14T06:13:49;6.70;;;3.87;;
13230;SDS011;6681;53.254;10.398;2023-06-14T06:16:14;5.50;;;3.50;;
13230;SDS011;6681;53.254;10.398;2023-06-14T06:18:40;7.37;;;3.80;;
13230;SDS011;6681;53.254;10.398;2023-06-14T06:21:06;7.13;;;3.60;;
13230;SDS011;6681;53.254;10.398;2023-06-14T06:23:31;5.37;;;3.40;;
13230;SDS011;6681;53.254;10.398;2023-06-14T06:25:57;6.33;;;4.03;;
13230;SDS011;6681;53.254;10.398;2023-06-14T06:28:23;8.27;;;3.60;;
13230;SDS011;6681;53.254;10.398;2023-06-14T06:30:48;7.23;;;3.40;;
13230;SDS011;6681;53.254;10.398;2023-06-14T06:33:15;4.93;;;2.20;;
13230;SDS011;6681;53.254;10.398;2023-06-14T06:35:41;7.20;;;3.53;;
13230;SDS011;6681;53.254;10.398;2023-06-14T06:38:07;5.40;;;3.17;;
13230;SDS011;6681;53.254;10.398;2023-06-14T06:40:34;4.50;;;3.87;;
13230;SDS011;6681;53.254;10.398;2023-06-14T06:43:01;3.83;;;3.10;;
13230;SDS011;6681;53.254;10.398;2023-06-14T06:45:28;3.37;;;2.70;;
13230;SDS011;6681;53.254;10.398;2023-06-14T06:47:53;3.13;;;2.83;;
13230;SDS011;6681;53.254;10.398;2023-06-14T06:50:20;3.40;;;2.30;;
13230;SDS011;6681;53.254;10.398;2023-06-14T06:52:48;8.97;;;3.33;;
13230;SDS011;6681;53.254;10.398;2023-06-14T06:55:14;5.27;;;3.20;;
13230;SDS011;6681;53.254;10.398;2023-06-14T06:57:39;3.50;;;2.83;;
13230;SDS011;6681;53.254;10.398;2023-06-14T07:00:06;7.30;;;2.83;;
13230;SDS011;6681;53.254;10.398;2023-06-14T07:02:36;5.00;;;2.90;;
13230;SDS011;6681;53.254;10.398;2023-06-14T07:05:01;4.53;;;3.23;;
13230;SDS011;6681;53.254;10.398;2023-06-14T07:07:27;10.40;;;3.27;;
13230;SDS011;6681;53.254;10.398;2023-06-14T07:09:53;10.17;;;4.00;;
13230;SDS011;6681;53.254;10.398;2023-06-14T07:12:19;4.50;;;3.20;;
13230;SDS011;6681;53.254;10.398;2023-06-14T07:14:44;3.97;;;3.23;;
13230;SDS011;6681;53.254;10.398;2023-06-14T07:17:10;3.70;;;3.03;;
13230;SDS011;6681;53.254;10.398;2023-06-14T07:19:36;3.60;;;2.67;;
13230;SDS011;6681;53.254;10.398;2023-06-14T07:22:01;3.43;;;2.77;;
13230;SDS011;6681;53.254;10.398;2023-06-14T07:24:27;2.60;;;2.40;;
13230;SDS011;6681;53.254;10.398;2023-06-14T07:26:53;2.30;;;2.20;;
13230;SDS011;6681;53.254;10.398;2023-06-14T07:29:19;4.73;;;2.60;;
13230;SDS011;6681;53.254;10.398;2023-06-14T07:31:46;3.50;;;3.20;;
13230;SDS011;6681;53.254;10.398;2023-06-14T07:34:12;2.23;;;2.03;;
13230;SDS011;6681;53.254;10.398;2023-06-14T07:36:38;5.63;;;2.40;;
13230;SDS011;6681;53.254;10.398;2023-06-14T07:39:04;5.13;;;2.10;;
13230;SDS011;6681;53.254;10.398;2023-06-14T07:41:31;2.30;;;2.10;;
13230;SDS011;6681;53.254;10.398;2023-06-14T07:43:57;2.67;;;2.47;;
13230;SDS011;6681;53.254;10.398;2023-06-14T07:46:23;2.77;;;2.20;;
13230;SDS011;6681;53.254;10.398;2023-06-14T07:48:49;2.70;;;2.30;;
13230;SDS011;6681;53.254;10.398;2023-06-14T07:51:14;1.73;;;1.63;;
13230;SDS011;6681;53.254;10.398;2023-06-14T07:53:40;2.87;;;1.93;;
13230;SDS011;6681;53.254;10.398;2023-06-14T07:56:07;5.53;;;2.53;;
13230;SDS011;6681;53.254;10.398;2023-06-14T07:58:32;3.67;;;2.87;;
13230;SDS011;6681;53.254;10.398;2023-06-14T08:00:58;3.07;;;2.07;;
13230;SDS011;6681;53.254;10.398;2023-06-14T08:03:25;2.77;;;2.57;;
13230;SDS011;6681;53.254;10.398;2023-06-14T08:05:51;1.70;;;1.60;;
13230;SDS011;6681;53.254;10.398;2023-06-14T08:08:17;3.80;;;2.07;;
13230;SDS011;6681;53.254;10.398;2023-06-14T08:10:43;2.90;;;2.00;;
13230;SDS011;6681;53.254;10.398;2023-06-14T08:13:09;2.03;;;1.53;;
13230;SDS011;6681;53.254;10.398;2023-06-14T08:15:35;2.30;;;2.07;;
13230;SDS011;6681;53.254;10.398;2023-06-14T08:18:00;3.90;;;2.70;;
13230;SDS011;6681;53.254;10.398;2023-06-14T08:20:27;3.87;;;2.17;;
13230;SDS011;6681;53.254;10.398;2023-06-14T08:22:52;8.20;;;2.27;;
13230;SDS011;6681;53.254;10.398;2023-06-14T08:25:21;3.07;;;1.90;;
13230;SDS011;6681;53.254;10.398;2023-06-14T08:27:47;5.20;;;2.20;;
13230;SDS011;6681;53.254;10.398;2023-06-14T08:30:13;5.07;;;2.00;;
13230;SDS011;6681;53.254;10.398;2023-06-14T08:32:39;5.20;;;2.50;;
13230;SDS011;6681;53.254;10.398;2023-06-14T08:35:05;3.37;;;2.43;;
13230;SDS011;6681;53.254;10.398;2023-06-14T08:37:32;3.33;;;1.83;;
13230;SDS011;6681;53.254;10.398;2023-06-14T08:40:00;4.47;;;2.53;;
13230;SDS011;6681;53.254;10.398;2023-06-14T08:42:26;2.40;;;2.00;;
13230;SDS011;6681;53.254;10.398;2023-06-14T08:44:51;5.03;;;3.10;;
13230;SDS011;6681;53.254;10.398;2023-06-14T08:47:17;3.40;;;2.30;;
13230;SDS011;6681;53.254;10.398;2023-06-14T08:49:45;4.50;;;2.23;;
13230;SDS011;6681;53.254;10.398;2023-06-14T08:52:13;7.70;;;2.90;;
13230;SDS011;6681;53.254;10.398;2023-06-14T08:54:43;2.73;;;2.53;;
13230;SDS011;6681;53.254;10.398;2023-06-14T08:57:11;8.80;;;2.93;;
13230;SDS011;6681;53.254;10.398;2023-06-14T08:59:40;6.07;;;2.37;;
13230;SDS011;6681;53.254;10.398;2023-06-14T09:02:11;4.87;;;1.93;;
13230;SDS011;6681;53.254;10.398;2023-06-14T09:04:39;2.13;;;1.93;;
13230;SDS011;6681;53.254;10.398;2023-06-14T09:07:05;2.77;;;1.97;;
13230;SDS011;6681;53.254;10.398;2023-06-14T09:09:31;2.40;;;2.20;;
13230;SDS011;6681;53.254;10.398;2023-06-14T09:11:57;2.47;;;1.87;;
13230;SDS011;6681;53.254;10.398;2023-06-14T09:14:26;3.20;;;2.20;;
13230;SDS011;6681;53.254;10.398;2023-06-14T09:16:52;8.30;;;2.40;;
13230;SDS011;6681;53.254;10.398;2023-06-14T09:19:21;4.37;;;2.00;;
13230;SDS011;6681;53.254;10.398;2023-06-14T09:21:49;2.43;;;1.97;;
13230;SDS011;6681;53.254;10.398;2023-06-14T09:24:16;3.20;;;1.70;;
13230;SDS011;6681;53.254;10.398;2023-06-14T09:26:42;3.47;;;2.57;;
13230;SDS011;6681;53.254;10.398;2023-06-14T09:29:08;2.27;;;2.07;;
13230;SDS011;6681;53.254;10.398;2023-06-14T09:31:34;5.30;;;2.73;;
13230;SDS011;6681;53.254;10.398;2023-06-14T09:34:01;3.90;;;2.80;;
13230;SDS011;6681;53.254;10.398;2023-06-14T09:36:27;3.23;;;2.90;;
13230;SDS011;6681;53.254;10.398;2023-06-14T09:39:00;4.03;;;2.30;;
13230;SDS011;6681;53.254;10.398;2023-06-14T09:41:40;2.70;;;2.20;;
13230;SDS011;6681;53.254;10.398;2023-06-14T09:44:08;3.13;;;2.83;;
13230;SDS011;6681;53.254;10.398;2023-06-14T09:46:34;5.50;;;2.83;;
13230;SDS011;6681;53.254;10.398;2023-06-14T09:49:01;2.53;;;2.20;;
13230;SDS011;6681;53.254;10.398;2023-06-14T09:51:28;3.13;;;2.67;;
13230;SDS011;6681;53.254;10.398;2023-06-14T09:54:01;5.23;;;2.73;;
13230;SDS011;6681;53.254;10.398;2023-06-14T09:56:31;6.00;;;2.37;;
13230;SDS011;6681;53.254;10.398;2023-06-14T09:58:59;3.77;;;2.30;;
13230;SDS011;6681;53.254;10.398;2023-06-14T10:01:30;5.73;;;2.40;;
13230;SDS011;6681;53.254;10.398;2023-06-14T10:04:04;3.57;;;2.90;;
13230;SDS011;6681;53.254;10.398;2023-06-14T10:06:30;3.77;;;2.27;;
13230;SDS011;6681;53.254;10.398;2023-06-14T10:08:58;3.10;;;2.00;;
13230;SDS011;6681;53.254;10.398;2023-06-14T10:11:28;2.97;;;2.10;;
13230;SDS011;6681;53.254;10.398;2023-06-14T10:13:57;3.60;;;1.67;;
13230;SDS011;6681;53.254;10.398;2023-06-14T10:16:28;3.47;;;2.20;;
13230;SDS011;6681;53.254;10.398;2023-06-14T10:24:22;5.67;;;1.67;;
13230;SDS011;6681;53.254;10.398;2023-06-14T10:27:06;3.57;;;2.10;;
13230;SDS011;6681;53.254;10.398;2023-06-14T10:32:23;4.90;;;2.73;;
13230;SDS011;6681;53.254;10.398;2023-06-14T10:34:56;6.37;;;2.20;;
13230;SDS011;6681;53.254;10.398;2023-06-14T10:37:32;6.17;;;2.23;;
13230;SDS011;6681;53.254;10.398;2023-06-14T10:39:58;4.93;;;2.20;;
13230;SDS011;6681;53.254;10.398;2023-06-14T10:42:27;2.53;;;2.13;;
13230;SDS011;6681;53.254;10.398;2023-06-14T10:44:57;5.93;;;2.33;;
13230;SDS011;6681;53.254;10.398;2023-06-14T10:47:27;4.03;;;1.93;;
13230;SDS011;6681;53.254;10.398;2023-06-14T10:50:06;5.13;;;2.10;;
13230;SDS011;6681;53.254;10.398;2023-06-14T10:52:34;3.50;;;1.80;;
13230;SDS011;6681;53.254;10.398;2023-06-14T10:55:07;4.27;;;2.43;;
13230;SDS011;6681;53.254;10.398;2023-06-14T10:57:40;4.03;;;2.20;;
13230;SDS011;6681;53.254;10.398;2023-06-14T11:00:17;2.47;;;1.93;;
13230;SDS011;6681;53.254;10.398;2023-06-14T11:05:49;4.37;;;2.43;;
13230;SDS011;6681;53.254;10.398;2023-06-14T11:08:25;5.20;;;2.30;;
13230;SDS011;6681;53.254;10.398;2023-06-14T11:11:08;2.57;;;2.13;;
13230;SDS011;6681;53.254;10.398;2023-06-14T11:13:36;6.60;;;3.00;;
13230;SDS011;6681;53.254;10.398;2023-06-14T11:16:10;3.87;;;2.30;;
13230;SDS011;6681;53.254;10.398;2023-06-14T11:18:37;2.27;;;2.00;;
13230;SDS011;6681;53.254;10.398;2023-06-14T11:21:02;5.80;;;2.93;;
13230;SDS011;6681;53.254;10.398;2023-06-14T11:23:28;5.47;;;2.70;;
13230;SDS011;6681;53.254;10.398;2023-06-14T11:25:54;4.20;;;2.27;;
13230;SDS011;6681;53.254;10.398;2023-06-14T11:28:20;3.10;;;2.13;;
13230;SDS011;6681;53.254;10.398;2023-06-14T11:30:47;6.00;;;3.20;;
13230;SDS011;6681;53.254;10.398;2023-06-14T11:33:19;5.73;;;2.20;;
13230;SDS011;6681;53.254;10.398;2023-06-14T11:35:45;4.30;;;2.30;;
13230;SDS011;6681;53.254;10.398;2023-06-14T11:38:10;4.00;;;2.70;;
13230;SDS011;6681;53.254;10.398;2023-06-14T11:40:37;4.20;;;3.07;;
13230;SDS011;6681;53.254;10.398;2023-06-14T11:43:03;3.13;;;2.20;;
13230;SDS011;6681;53.254;10.398;2023-06-14T11:45:29;5.63;;;2.13;;
13230;SDS011;6681;53.254;10.398;2023-06-14T11:47:56;2.27;;;2.07;;
13230;SDS011;6681;53.254;10.398;2023-06-14T11:50:23;3.70;;;1.80;;
13230;SDS011;6681;53.254;10.398;2023-06-14T11:52:56;5.53;;;2.20;;
13230;SDS011;6681;53.254;10.398;2023-06-14T11:55:25;3.10;;;2.60;;
13230;SDS011;6681;53.254;10.398;2023-06-14T11:57:51;2.93;;;2.00;;
13230;SDS011;6681;53.254;10.398;2023-06-14T12:00:19;3.40;;;2.57;;
13230;SDS011;6681;53.254;10.398;2023-06-14T12:02:55;4.03;;;2.10;;
13230;SDS011;6681;53.254;10.398;2023-06-14T12:05:22;2.17;;;1.70;;
13230;SDS011;6681;53.254;10.398;2023-06-14T12:07:48;2.50;;;2.00;;
13230;SDS011;6681;53.254;10.398;2023-06-14T12:10:15;9.90;;;3.80;;
13230;SDS011;6681;53.254;10.398;2023-06-14T12:12:41;5.07;;;2.63;;
13230;SDS011;6681;53.254;10.398;2023-06-14T12:15:08;2.20;;;1.70;;
13230;SDS011;6681;53.254;10.398;2023-06-14T12:17:36;4.63;;;2.33;;
13230;SDS011;6681;53.254;10.398;2023-06-14T12:20:07;4.17;;;2.00;;
13230;SDS011;6681;53.254;10.398;2023-06-14T12:23:00;8.53;;;2.00;;
13230;SDS011;6681;53.254;10.398;2023-06-14T12:25:26;3.07;;;1.93;;
13230;SDS011;6681;53.254;10.398;2023-06-14T12:27:57;4.77;;;1.87;;
13230;SDS011;6681;53.254;10.398;2023-06-14T12:30:24;5.67;;;2.07;;
13230;SDS011;6681;53.254;10.398;2023-06-14T12:32:49;5.23;;;2.20;;
13230;SDS011;6681;53.254;10.398;2023-06-14T12:35:16;2.10;;;1.80;;
13230;SDS011;6681;53.254;10.398;2023-06-14T12:37:43;3.67;;;1.90;;
13230;SDS011;6681;53.254;10.398;2023-06-14T12:40:10;8.53;;;1.93;;
13230;SDS011;6681;53.254;10.398;2023-06-14T12:42:37;3.17;;;1.83;;
13230;SDS011;6681;53.254;10.398;2023-06-14T12:45:02;3.77;;;2.17;;
13230;SDS011;6681;53.254;10.398;2023-06-14T12:47:28;6.80;;;1.93;;
13230;SDS011;6681;53.254;10.398;2023-06-14T12:49:54;4.23;;;1.60;;
13230;SDS011;6681;53.254;10.398;2023-06-14T12:52:20;6.37;;;1.87;;
13230;SDS011;6681;53.254;10.398;2023-06-14T12:54:46;3.53;;;1.50;;
13230;SDS011;6681;53.254;10.398;2023-06-14T12:57:11;3.05;;;1.83;;
13230;SDS011;6681;53.254;10.398;2023-06-14T12:59:37;3.08;;;1.77;;
13230;SDS011;6681;53.254;10.398;2023-06-14T13:02:15;2.97;;;1.52;;
13230;SDS011;6681;53.254;10.398;2023-06-14T13:04:42;2.30;;;2.07;;
13230;SDS011;6681;53.254;10.398;2023-06-14T13:07:09;3.50;;;2.03;;
13230;SDS011;6681;53.254;10.398;2023-06-14T13:09:36;3.45;;;2.20;;
13230;SDS011;6681;53.254;10.398;2023-06-14T13:12:02;6.15;;;1.85;;
13230;SDS011;6681;53.254;10.398;2023-06-14T13:14:28;4.25;;;1.98;;
13230;SDS011;6681;53.254;10.398;2023-06-14T13:16:53;4.03;;;2.30;;
13230;SDS011;6681;53.254;10.398;2023-06-14T13:19:20;4.53;;;3.05;;
13230;SDS011;6681;53.254;10.398;2023-06-14T13:21:46;1.10;;;1.05;;
13230;SDS011;6681;53.254;10.398;2023-06-14T13:24:12;2.33;;;1.55;;
13230;SDS011;6681;53.254;10.398;2023-06-14T13:26:38;3.10;;;2.20;;
13230;SDS011;6681;53.254;10.398;2023-06-14T13:29:04;3.53;;;1.55;;
13230;SDS011;6681;53.254;10.398;2023-06-14T13:31:30;4.85;;;2.10;;
13230;SDS011;6681;53.254;10.398;2023-06-14T13:33:55;1.90;;;1.80;;
13230;SDS011;6681;53.254;10.398;2023-06-14T13:36:21;1.67;;;1.58;;
13230;SDS011;6681;53.254;10.398;2023-06-14T13:38:47;2.33;;;1.50;;
13230;SDS011;6681;53.254;10.398;2023-06-14T13:41:12;4.72;;;1.67;;
13230;SDS011;6681;53.254;10.398;2023-06-14T13:43:38;8.15;;;2.45;;
13230;SDS011;6681;53.254;10.398;2023-06-14T13:46:03;3.55;;;2.35;;
13230;SDS011;6681;53.254;10.398;2023-06-14T13:48:29;2.95;;;1.85;;
13230;SDS011;6681;53.254;10.398;2023-06-14T13:50:55;2.45;;;1.42;;
13230;SDS011;6681;53.254;10.398;2023-06-14T13:53:22;5.70;;;2.13;;
13230;SDS011;6681;53.254;10.398;2023-06-14T13:55:47;4.35;;;2.22;;
13230;SDS011;6681;53.254;10.398;2023-06-14T13:58:13;4.10;;;2.35;;
13230;SDS011;6681;53.254;10.398;2023-06-14T14:00:40;5.35;;;2.25;;
13230;SDS011;6681;53.254;10.398;2023-06-14T14:03:06;3.92;;;1.80;;
13230;SDS011;6681;53.254;10.398;2023-06-14T14:05:31;3.45;;;1.77;;
13230;SDS011;6681;53.254;10.398;2023-06-14T14:07:57;4.72;;;1.92;;
13230;SDS011;6681;53.254;10.398;2023-06-14T14:10:26;2.00;;;1.90;;
13230;SDS011;6681;53.254;10.398;2023-06-14T14:12:52;3.10;;;1.52;;
13230;SDS011;6681;53.254;10.398;2023-06-14T14:15:18;4.10;;;2.33;;
13230;SDS011;6681;53.254;10.398;2023-06-14T14:17:44;1.58;;;1.48;;
13230;SDS011;6681;53.254;10.398;2023-06-14T14:20:10;5.68;;;2.30;;
13230;SDS011;6681;53.254;10.398;2023-06-14T14:22:41;4.73;;;1.40;;
13230;SDS011;6681;53.254;10.398;2023-06-14T14:25:07;3.33;;;1.90;;
13230;SDS011;6681;53.254;10.398;2023-06-14T14:27:33;4.73;;;2.60;;
13230;SDS011;6681;53.254;10.398;2023-06-14T14:29:59;5.20;;;1.90;;
13230;SDS011;6681;53.254;10.398;2023-06-14T14:32:24;1.85;;;1.40;;
13230;SDS011;6681;53.254;10.398;2023-06-14T14:34:50;3.63;;;1.63;;
13230;SDS011;6681;53.254;10.398;2023-06-14T14:37:16;4.38;;;2.28;;
13230;SDS011;6681;53.254;10.398;2023-06-14T14:39:41;3.27;;;2.07;;
13230;SDS011;6681;53.254;10.398;2023-06-14T14:42:08;13.20;;;3.60;;
13230;SDS011;6681;53.254;10.398;2023-06-14T14:44:36;7.00;;;2.10;;
13230;SDS011;6681;53.254;10.398;2023-06-14T14:47:01;6.40;;;2.33;;
13230;SDS011;6681;53.254;10.398;2023-06-14T14:49:27;8.20;;;2.83;;
13230;SDS011;6681;53.254;10.398;2023-06-14T14:51:53;5.50;;;1.97;;
13230;SDS011;6681;53.254;10.398;2023-06-14T14:54:21;4.60;;;2.20;;
13230;SDS011;6681;53.254;10.398;2023-06-14T14:56:47;5.30;;;2.10;;
13230;SDS011;6681;53.254;10.398;2023-06-14T14:59:12;5.70;;;1.67;;
13230;SDS011;6681;53.254;10.398;2023-06-14T15:01:38;1.73;;;1.33;;